Terminal Aerodrome Forecast
Issued by NWS

Home | Current Version | Previous Version | Text Only | Print | Product List | Glossary On
Versions: 1 2 3 4 5 6 7 8 9 10 11 12 13 14 15 16
000
FTUS44 KLZK 091723
TAFBPK
TAF
KBPK 091723Z 0918/1018 VRB03KT P6SM FEW250
     FM100000 12003KT P6SM SCT250
     FM101200 14004KT P6SM FEW050 SCT250=

USA.gov is the U.S. government's official web portal to all federal, state and local government web resources and services.